sensor_id;sensor_type;location;lat;lon;timestamp;P1;durP1;ratioP1;P2;durP2;ratioP2
6651;SDS011;3362;50.892;10.692;2022-10-17T00:01:29;6.07;;;3.63;;
6651;SDS011;3362;50.892;10.692;2022-10-17T00:03:55;5.45;;;3.42;;
6651;SDS011;3362;50.892;10.692;2022-10-17T00:06:22;4.05;;;2.28;;
6651;SDS011;3362;50.892;10.692;2022-10-17T00:08:48;2.17;;;1.75;;
6651;SDS011;3362;50.892;10.692;2022-10-17T00:11:15;2.30;;;1.70;;
6651;SDS011;3362;50.892;10.692;2022-10-17T00:13:43;3.22;;;1.80;;
6651;SDS011;3362;50.892;10.692;2022-10-17T00:16:09;1.45;;;1.20;;
6651;SDS011;3362;50.892;10.692;2022-10-17T00:18:36;4.88;;;1.85;;
6651;SDS011;3362;50.892;10.692;2022-10-17T00:21:02;1.30;;;1.00;;
6651;SDS011;3362;50.892;10.692;2022-10-17T00:23:28;3.08;;;0.95;;
6651;SDS011;3362;50.892;10.692;2022-10-17T00:25:58;1.60;;;1.13;;
6651;SDS011;3362;50.892;10.692;2022-10-17T00:28:24;2.45;;;0.80;;
6651;SDS011;3362;50.892;10.692;2022-10-17T00:30:55;2.05;;;0.90;;
6651;SDS011;3362;50.892;10.692;2022-10-17T00:33:21;3.03;;;1.05;;
6651;SDS011;3362;50.892;10.692;2022-10-17T00:35:48;1.48;;;1.25;;
6651;SDS011;3362;50.892;10.692;2022-10-17T00:38:14;2.53;;;0.90;;
6651;SDS011;3362;50.892;10.692;2022-10-17T00:40:40;2.30;;;0.88;;
6651;SDS011;3362;50.892;10.692;2022-10-17T00:43:09;4.85;;;1.05;;
6651;SDS011;3362;50.892;10.692;2022-10-17T00:45:36;1.02;;;0.80;;
6651;SDS011;3362;50.892;10.692;2022-10-17T00:48:04;0.98;;;0.80;;
6651;SDS011;3362;50.892;10.692;2022-10-17T00:50:32;1.73;;;0.80;;
6651;SDS011;3362;50.892;10.692;2022-10-17T00:53:00;4.20;;;0.93;;
6651;SDS011;3362;50.892;10.692;2022-10-17T00:55:29;1.95;;;0.75;;
6651;SDS011;3362;50.892;10.692;2022-10-17T00:57:56;4.15;;;1.08;;
6651;SDS011;3362;50.892;10.692;2022-10-17T01:00:22;0.80;;;0.65;;
6651;SDS011;3362;50.892;10.692;2022-10-17T01:02:49;1.45;;;0.70;;
6651;SDS011;3362;50.892;10.692;2022-10-17T01:05:17;2.10;;;0.73;;
6651;SDS011;3362;50.892;10.692;2022-10-17T01:07:44;2.83;;;0.75;;
6651;SDS011;3362;50.892;10.692;2022-10-17T01:10:11;0.95;;;0.75;;
6651;SDS011;3362;50.892;10.692;2022-10-17T01:12:40;1.85;;;1.67;;
6651;SDS011;3362;50.892;10.692;2022-10-17T01:15:11;0.73;;;0.70;;
6651;SDS011;3362;50.892;10.692;2022-10-17T01:17:41;0.70;;;0.70;;
6651;SDS011;3362;50.892;10.692;2022-10-17T01:23:02;1.90;;;1.10;;
6651;SDS011;3362;50.892;10.692;2022-10-17T01:25:34;1.10;;;1.00;;
6651;SDS011;3362;50.892;10.692;2022-10-17T01:28:10;1.08;;;0.98;;
6651;SDS011;3362;50.892;10.692;2022-10-17T01:30:47;2.55;;;0.68;;
6651;SDS011;3362;50.892;10.692;2022-10-17T01:33:16;2.85;;;1.02;;
6651;SDS011;3362;50.892;10.692;2022-10-17T01:35:46;2.35;;;0.93;;
6651;SDS011;3362;50.892;10.692;2022-10-17T01:38:14;0.70;;;0.70;;
6651;SDS011;3362;50.892;10.692;2022-10-17T01:40:44;2.42;;;0.80;;
6651;SDS011;3362;50.892;10.692;2022-10-17T01:43:14;4.63;;;1.13;;
6651;SDS011;3362;50.892;10.692;2022-10-17T01:45:43;2.40;;;1.13;;
6651;SDS011;3362;50.892;10.692;2022-10-17T01:48:15;2.80;;;0.80;;
6651;SDS011;3362;50.892;10.692;2022-10-17T01:50:44;1.83;;;1.13;;
6651;SDS011;3362;50.892;10.692;2022-10-17T01:53:12;0.93;;;0.57;;
6651;SDS011;3362;50.892;10.692;2022-10-17T01:55:40;3.15;;;0.90;;
6651;SDS011;3362;50.892;10.692;2022-10-17T01:58:08;1.95;;;0.77;;
6651;SDS011;3362;50.892;10.692;2022-10-17T02:00:35;2.30;;;0.80;;
6651;SDS011;3362;50.892;10.692;2022-10-17T02:03:04;2.22;;;0.80;;
6651;SDS011;3362;50.892;10.692;2022-10-17T02:05:35;1.00;;;0.90;;
6651;SDS011;3362;50.892;10.692;2022-10-17T02:08:02;3.33;;;1.10;;
6651;SDS011;3362;50.892;10.692;2022-10-17T02:10:30;4.50;;;1.05;;
6651;SDS011;3362;50.892;10.692;2022-10-17T02:12:58;1.45;;;1.10;;
6651;SDS011;3362;50.892;10.692;2022-10-17T02:15:38;1.20;;;0.98;;
6651;SDS011;3362;50.892;10.692;2022-10-17T02:18:12;3.15;;;0.98;;
6651;SDS011;3362;50.892;10.692;2022-10-17T02:20:44;1.05;;;0.73;;
6651;SDS011;3362;50.892;10.692;2022-10-17T02:23:15;1.27;;;1.05;;
6651;SDS011;3362;50.892;10.692;2022-10-17T02:25:47;1.05;;;0.70;;
6651;SDS011;3362;50.892;10.692;2022-10-17T02:28:17;2.30;;;1.00;;
6651;SDS011;3362;50.892;10.692;2022-10-17T02:30:45;3.00;;;1.10;;
6651;SDS011;3362;50.892;10.692;2022-10-17T02:33:15;1.88;;;1.33;;
6651;SDS011;3362;50.892;10.692;2022-10-17T02:35:46;0.82;;;0.80;;
6651;SDS011;3362;50.892;10.692;2022-10-17T02:38:14;4.60;;;0.93;;
6651;SDS011;3362;50.892;10.692;2022-10-17T02:40:41;1.77;;;0.93;;
6651;SDS011;3362;50.892;10.692;2022-10-17T02:43:07;4.28;;;1.10;;
6651;SDS011;3362;50.892;10.692;2022-10-17T02:45:34;1.98;;;1.08;;
6651;SDS011;3362;50.892;10.692;2022-10-17T02:48:02;1.13;;;1.02;;
6651;SDS011;3362;50.892;10.692;2022-10-17T02:50:32;1.50;;;1.00;;
6651;SDS011;3362;50.892;10.692;2022-10-17T02:53:02;3.20;;;0.90;;
6651;SDS011;3362;50.892;10.692;2022-10-17T02:55:31;2.65;;;0.95;;
6651;SDS011;3362;50.892;10.692;2022-10-17T02:57:58;1.10;;;0.95;;
6651;SDS011;3362;50.892;10.692;2022-10-17T03:00:26;1.67;;;0.95;;
6651;SDS011;3362;50.892;10.692;2022-10-17T03:02:52;1.95;;;1.05;;
6651;SDS011;3362;50.892;10.692;2022-10-17T03:05:19;2.50;;;1.17;;
6651;SDS011;3362;50.892;10.692;2022-10-17T03:07:46;1.02;;;0.93;;
6651;SDS011;3362;50.892;10.692;2022-10-17T03:10:14;3.55;;;1.05;;
6651;SDS011;3362;50.892;10.692;2022-10-17T03:12:40;2.88;;;1.52;;
6651;SDS011;3362;50.892;10.692;2022-10-17T03:15:07;6.22;;;1.05;;
6651;SDS011;3362;50.892;10.692;2022-10-17T03:17:33;4.43;;;0.93;;
6651;SDS011;3362;50.892;10.692;2022-10-17T03:20:01;1.25;;;0.80;;
6651;SDS011;3362;50.892;10.692;2022-10-17T03:22:28;1.40;;;1.10;;
6651;SDS011;3362;50.892;10.692;2022-10-17T03:24:54;1.00;;;0.70;;
6651;SDS011;3362;50.892;10.692;2022-10-17T03:27:22;1.13;;;0.82;;
6651;SDS011;3362;50.892;10.692;2022-10-17T03:29:48;4.43;;;1.08;;
6651;SDS011;3362;50.892;10.692;2022-10-17T03:32:15;2.45;;;1.23;;
6651;SDS011;3362;50.892;10.692;2022-10-17T03:34:41;2.90;;;1.30;;
6651;SDS011;3362;50.892;10.692;2022-10-17T03:37:07;2.20;;;1.40;;
6651;SDS011;3362;50.892;10.692;2022-10-17T03:39:33;4.80;;;1.20;;
6651;SDS011;3362;50.892;10.692;2022-10-17T03:42:00;1.13;;;1.02;;
6651;SDS011;3362;50.892;10.692;2022-10-17T03:44:27;1.40;;;1.17;;
6651;SDS011;3362;50.892;10.692;2022-10-17T03:46:54;5.40;;;1.42;;
6651;SDS011;3362;50.892;10.692;2022-10-17T03:49:20;1.90;;;1.58;;
6651;SDS011;3362;50.892;10.692;2022-10-17T03:51:46;1.45;;;1.25;;
6651;SDS011;3362;50.892;10.692;2022-10-17T03:54:12;1.50;;;1.20;;
6651;SDS011;3362;50.892;10.692;2022-10-17T03:56:39;4.88;;;1.13;;
6651;SDS011;3362;50.892;10.692;2022-10-17T03:59:05;2.30;;;1.27;;
6651;SDS011;3362;50.892;10.692;2022-10-17T04:01:33;1.48;;;1.30;;
6651;SDS011;3362;50.892;10.692;2022-10-17T04:03:59;6.32;;;1.73;;
6651;SDS011;3362;50.892;10.692;2022-10-17T04:06:25;7.82;;;2.00;;
6651;SDS011;3362;50.892;10.692;2022-10-17T04:08:52;2.33;;;1.30;;
6651;SDS011;3362;50.892;10.692;2022-10-17T04:11:18;3.58;;;1.55;;
6651;SDS011;3362;50.892;10.692;2022-10-17T04:13:45;2.10;;;1.23;;
6651;SDS011;3362;50.892;10.692;2022-10-17T04:16:12;4.95;;;2.00;;
6651;SDS011;3362;50.892;10.692;2022-10-17T04:18:40;3.17;;;1.88;;
6651;SDS011;3362;50.892;10.692;2022-10-17T04:21:07;5.38;;;1.88;;
6651;SDS011;3362;50.892;10.692;2022-10-17T04:23:33;3.90;;;1.42;;
6651;SDS011;3362;50.892;10.692;2022-10-17T04:26:00;1.73;;;1.33;;
6651;SDS011;3362;50.892;10.692;2022-10-17T04:28:27;4.25;;;2.03;;
6651;SDS011;3362;50.892;10.692;2022-10-17T04:30:56;3.35;;;1.98;;
6651;SDS011;3362;50.892;10.692;2022-10-17T04:33:23;2.80;;;2.03;;
6651;SDS011;3362;50.892;10.692;2022-10-17T04:35:58;4.20;;;2.30;;
6651;SDS011;3362;50.892;10.692;2022-10-17T04:38:24;4.25;;;1.60;;
6651;SDS011;3362;50.892;10.692;2022-10-17T04:40:51;4.40;;;1.35;;
6651;SDS011;3362;50.892;10.692;2022-10-17T04:43:17;4.35;;;1.60;;
6651;SDS011;3362;50.892;10.692;2022-10-17T04:45:43;7.97;;;2.80;;
6651;SDS011;3362;50.892;10.692;2022-10-17T04:48:10;3.97;;;1.95;;
6651;SDS011;3362;50.892;10.692;2022-10-17T04:50:36;1.55;;;1.45;;
6651;SDS011;3362;50.892;10.692;2022-10-17T04:53:04;1.52;;;1.20;;
6651;SDS011;3362;50.892;10.692;2022-10-17T04:55:30;2.58;;;1.65;;
6651;SDS011;3362;50.892;10.692;2022-10-17T04:57:56;1.75;;;1.17;;
6651;SDS011;3362;50.892;10.692;2022-10-17T05:00:22;4.50;;;1.17;;
6651;SDS011;3362;50.892;10.692;2022-10-17T05:02:49;4.88;;;1.13;;
6651;SDS011;3362;50.892;10.692;2022-10-17T05:05:15;2.28;;;1.20;;
6651;SDS011;3362;50.892;10.692;2022-10-17T05:07:41;4.15;;;1.10;;
6651;SDS011;3362;50.892;10.692;2022-10-17T05:10:09;1.45;;;1.00;;
6651;SDS011;3362;50.892;10.692;2022-10-17T05:12:35;1.58;;;1.25;;
6651;SDS011;3362;50.892;10.692;2022-10-17T05:15:02;1.67;;;1.30;;
6651;SDS011;3362;50.892;10.692;2022-10-17T05:17:28;1.50;;;1.10;;
6651;SDS011;3362;50.892;10.692;2022-10-17T05:19:54;3.03;;;1.30;;
6651;SDS011;3362;50.892;10.692;2022-10-17T05:22:21;3.45;;;1.17;;
6651;SDS011;3362;50.892;10.692;2022-10-17T05:24:47;3.33;;;0.95;;
6651;SDS011;3362;50.892;10.692;2022-10-17T05:27:15;2.85;;;1.35;;
6651;SDS011;3362;50.892;10.692;2022-10-17T05:29:41;3.40;;;1.27;;
6651;SDS011;3362;50.892;10.692;2022-10-17T05:32:07;1.33;;;1.17;;
6651;SDS011;3362;50.892;10.692;2022-10-17T05:34:33;1.20;;;1.10;;
6651;SDS011;3362;50.892;10.692;2022-10-17T05:37:00;2.15;;;1.33;;
6651;SDS011;3362;50.892;10.692;2022-10-17T05:39:26;1.20;;;1.10;;
6651;SDS011;3362;50.892;10.692;2022-10-17T05:41:52;0.90;;;0.80;;
6651;SDS011;3362;50.892;10.692;2022-10-17T05:44:20;2.08;;;1.27;;
6651;SDS011;3362;50.892;10.692;2022-10-17T05:46:46;1.92;;;1.23;;
6651;SDS011;3362;50.892;10.692;2022-10-17T05:49:13;1.95;;;1.48;;
6651;SDS011;3362;50.892;10.692;2022-10-17T05:51:39;2.97;;;1.75;;
6651;SDS011;3362;50.892;10.692;2022-10-17T05:54:05;2.05;;;1.27;;
6651;SDS011;3362;50.892;10.692;2022-10-17T05:56:32;3.70;;;1.88;;
6651;SDS011;3362;50.892;10.692;2022-10-17T05:58:58;5.93;;;2.40;;
6651;SDS011;3362;50.892;10.692;2022-10-17T06:01:26;4.50;;;2.65;;
6651;SDS011;3362;50.892;10.692;2022-10-17T06:03:52;3.40;;;2.50;;
6651;SDS011;3362;50.892;10.692;2022-10-17T06:06:19;5.10;;;2.28;;
6651;SDS011;3362;50.892;10.692;2022-10-17T06:08:45;3.45;;;2.30;;
6651;SDS011;3362;50.892;10.692;2022-10-17T06:11:12;4.03;;;2.03;;
6651;SDS011;3362;50.892;10.692;2022-10-17T06:13:38;5.10;;;2.03;;
6651;SDS011;3362;50.892;10.692;2022-10-17T06:16:04;5.40;;;1.98;;
6651;SDS011;3362;50.892;10.692;2022-10-17T06:18:32;2.53;;;1.60;;
6651;SDS011;3362;50.892;10.692;2022-10-17T06:21:00;2.67;;;1.75;;
6651;SDS011;3362;50.892;10.692;2022-10-17T06:23:27;3.42;;;1.52;;
6651;SDS011;3362;50.892;10.692;2022-10-17T06:25:56;2.75;;;1.48;;
6651;SDS011;3362;50.892;10.692;2022-10-17T06:28:22;1.38;;;1.27;;
6651;SDS011;3362;50.892;10.692;2022-10-17T06:30:48;1.70;;;1.38;;
6651;SDS011;3362;50.892;10.692;2022-10-17T06:33:15;2.80;;;1.38;;
6651;SDS011;3362;50.892;10.692;2022-10-17T06:35:43;2.85;;;1.52;;
6651;SDS011;3362;50.892;10.692;2022-10-17T06:38:17;2.50;;;1.27;;
6651;SDS011;3362;50.892;10.692;2022-10-17T06:40:44;1.92;;;1.20;;
6651;SDS011;3362;50.892;10.692;2022-10-17T06:43:10;2.60;;;1.20;;
6651;SDS011;3362;50.892;10.692;2022-10-17T06:45:37;2.05;;;1.58;;
6651;SDS011;3362;50.892;10.692;2022-10-17T06:48:03;2.22;;;1.50;;
6651;SDS011;3362;50.892;10.692;2022-10-17T06:50:30;1.63;;;1.48;;
6651;SDS011;3362;50.892;10.692;2022-10-17T06:52:57;4.80;;;2.17;;
6651;SDS011;3362;50.892;10.692;2022-10-17T06:55:24;2.70;;;1.00;;
6651;SDS011;3362;50.892;10.692;2022-10-17T06:57:50;1.00;;;1.00;;
6651;SDS011;3362;50.892;10.692;2022-10-17T07:00:19;4.30;;;1.73;;
6651;SDS011;3362;50.892;10.692;2022-10-17T07:02:47;1.45;;;1.17;;
6651;SDS011;3362;50.892;10.692;2022-10-17T07:05:13;3.25;;;1.40;;
6651;SDS011;3362;50.892;10.692;2022-10-17T07:07:39;2.83;;;1.60;;
6651;SDS011;3362;50.892;10.692;2022-10-17T07:10:07;2.22;;;1.20;;
6651;SDS011;3362;50.892;10.692;2022-10-17T07:12:34;1.85;;;1.20;;
6651;SDS011;3362;50.892;10.692;2022-10-17T07:15:00;2.72;;;1.15;;
6651;SDS011;3362;50.892;10.692;2022-10-17T07:17:28;2.25;;;1.40;;
6651;SDS011;3362;50.892;10.692;2022-10-17T07:19:54;5.40;;;1.42;;
6651;SDS011;3362;50.892;10.692;2022-10-17T07:22:20;3.35;;;1.50;;
6651;SDS011;3362;50.892;10.692;2022-10-17T07:24:47;1.98;;;1.40;;
6651;SDS011;3362;50.892;10.692;2022-10-17T07:27:14;3.00;;;1.75;;
6651;SDS011;3362;50.892;10.692;2022-10-17T07:29:41;2.72;;;1.80;;
6651;SDS011;3362;50.892;10.692;2022-10-17T07:32:07;1.40;;;1.10;;
6651;SDS011;3362;50.892;10.692;2022-10-17T07:34:33;4.20;;;1.40;;
6651;SDS011;3362;50.892;10.692;2022-10-17T07:37:00;2.05;;;1.02;;
6651;SDS011;3362;50.892;10.692;2022-10-17T07:39:26;3.35;;;1.60;;
6651;SDS011;3362;50.892;10.692;2022-10-17T07:41:53;1.73;;;1.20;;
6651;SDS011;3362;50.892;10.692;2022-10-17T07:44:20;3.40;;;1.80;;
6651;SDS011;3362;50.892;10.692;2022-10-17T07:46:47;3.05;;;1.40;;
6651;SDS011;3362;50.892;10.692;2022-10-17T07:49:13;3.67;;;1.50;;
6651;SDS011;3362;50.892;10.692;2022-10-17T07:51:39;4.85;;;2.15;;
6651;SDS011;3362;50.892;10.692;2022-10-17T07:54:06;2.47;;;1.55;;
6651;SDS011;3362;50.892;10.692;2022-10-17T07:56:32;2.50;;;2.22;;
6651;SDS011;3362;50.892;10.692;2022-10-17T07:58:58;4.50;;;1.63;;
6651;SDS011;3362;50.892;10.692;2022-10-17T08:01:26;2.30;;;1.55;;
6651;SDS011;3362;50.892;10.692;2022-10-17T08:03:52;7.82;;;1.70;;
6651;SDS011;3362;50.892;10.692;2022-10-17T08:06:18;2.63;;;1.60;;
6651;SDS011;3362;50.892;10.692;2022-10-17T08:08:45;2.65;;;1.95;;
6651;SDS011;3362;50.892;10.692;2022-10-17T08:11:12;1.88;;;1.42;;
6651;SDS011;3362;50.892;10.692;2022-10-17T08:13:39;3.55;;;1.73;;
6651;SDS011;3362;50.892;10.692;2022-10-17T08:16:06;3.63;;;2.08;;
6651;SDS011;3362;50.892;10.692;2022-10-17T08:18:34;5.03;;;1.77;;
6651;SDS011;3362;50.892;10.692;2022-10-17T08:21:01;2.50;;;2.00;;
6651;SDS011;3362;50.892;10.692;2022-10-17T08:23:30;3.20;;;1.17;;
6651;SDS011;3362;50.892;10.692;2022-10-17T08:25:57;3.25;;;1.33;;
6651;SDS011;3362;50.892;10.692;2022-10-17T08:28:23;2.13;;;1.60;;
6651;SDS011;3362;50.892;10.692;2022-10-17T08:30:50;2.30;;;1.63;;
6651;SDS011;3362;50.892;10.692;2022-10-17T08:33:16;3.65;;;1.15;;
6651;SDS011;3362;50.892;10.692;2022-10-17T08:35:44;3.83;;;1.55;;
6651;SDS011;3362;50.892;10.692;2022-10-17T08:38:10;6.80;;;2.83;;
6651;SDS011;3362;50.892;10.692;2022-10-17T08:40:36;4.18;;;1.52;;
6651;SDS011;3362;50.892;10.692;2022-10-17T08:43:27;4.72;;;1.55;;
6651;SDS011;3362;50.892;10.692;2022-10-17T08:45:57;2.30;;;1.50;;
6651;SDS011;3362;50.892;10.692;2022-10-17T08:48:27;2.05;;;1.17;;
6651;SDS011;3362;50.892;10.692;2022-10-17T08:50:56;3.20;;;1.50;;
6651;SDS011;3362;50.892;10.692;2022-10-17T08:53:25;4.93;;;1.73;;
6651;SDS011;3362;50.892;10.692;2022-10-17T08:55:53;4.32;;;1.40;;
6651;SDS011;3362;50.892;10.692;2022-10-17T08:58:20;3.25;;;1.50;;
6651;SDS011;3362;50.892;10.692;2022-10-17T09:00:49;1.60;;;1.30;;
6651;SDS011;3362;50.892;10.692;2022-10-17T09:03:24;5.20;;;1.80;;
6651;SDS011;3362;50.892;10.692;2022-10-17T09:05:57;1.88;;;1.15;;
6651;SDS011;3362;50.892;10.692;2022-10-17T09:08:32;4.07;;;1.60;;
6651;SDS011;3362;50.892;10.692;2022-10-17T09:11:02;2.53;;;1.08;;
6651;SDS011;3362;50.892;10.692;2022-10-17T09:13:35;2.88;;;1.35;;
6651;SDS011;3362;50.892;10.692;2022-10-17T09:16:06;2.33;;;1.48;;
6651;SDS011;3362;50.892;10.692;2022-10-17T09:18:37;2.72;;;1.48;;
6651;SDS011;3362;50.892;10.692;2022-10-17T09:21:08;2.10;;;0.90;;
6651;SDS011;3362;50.892;10.692;2022-10-17T09:23:37;1.83;;;1.38;;
6651;SDS011;3362;50.892;10.692;2022-10-17T09:26:07;4.55;;;1.48;;
6651;SDS011;3362;50.892;10.692;2022-10-17T09:28:36;3.33;;;1.63;;
6651;SDS011;3362;50.892;10.692;2022-10-17T09:31:03;2.53;;;1.45;;
6651;SDS011;3362;50.892;10.692;2022-10-17T09:33:31;5.28;;;1.15;;
6651;SDS011;3362;50.892;10.692;2022-10-17T09:35:58;2.55;;;1.50;;
6651;SDS011;3362;50.892;10.692;2022-10-17T09:38:28;3.33;;;1.35;;
6651;SDS011;3362;50.892;10.692;2022-10-17T09:40:56;3.40;;;1.27;;
6651;SDS011;3362;50.892;10.692;2022-10-17T09:43:24;5.35;;;1.35;;
6651;SDS011;3362;50.892;10.692;2022-10-17T09:45:53;1.10;;;1.00;;
6651;SDS011;3362;50.892;10.692;2022-10-17T09:48:24;1.85;;;1.45;;
6651;SDS011;3362;50.892;10.692;2022-10-17T09:50:51;1.98;;;1.00;;
6651;SDS011;3362;50.892;10.692;2022-10-17T09:53:19;9.07;;;1.10;;
6651;SDS011;3362;50.892;10.692;2022-10-17T09:55:49;3.35;;;1.08;;
6651;SDS011;3362;50.892;10.692;2022-10-17T09:58:16;2.72;;;1.40;;
6651;SDS011;3362;50.892;10.692;2022-10-17T10:00:43;1.27;;;1.08;;
6651;SDS011;3362;50.892;10.692;2022-10-17T10:03:13;4.00;;;1.10;;
6651;SDS011;3362;50.892;10.692;2022-10-17T10:05:40;2.38;;;1.10;;
6651;SDS011;3362;50.892;10.692;2022-10-17T10:08:12;2.78;;;1.00;;
6651;SDS011;3362;50.892;10.692;2022-10-17T10:10:39;1.67;;;1.00;;
6651;SDS011;3362;50.892;10.692;2022-10-17T10:13:16;2.35;;;1.00;;
6651;SDS011;3362;50.892;10.692;2022-10-17T10:15:44;3.55;;;1.10;;
6651;SDS011;3362;50.892;10.692;2022-10-17T10:18:25;1.95;;;1.00;;
6651;SDS011;3362;50.892;10.692;2022-10-17T10:21:01;2.03;;;0.95;;
6651;SDS011;3362;50.892;10.692;2022-10-17T10:23:28;1.35;;;1.23;;
6651;SDS011;3362;50.892;10.692;2022-10-17T10:25:55;2.95;;;1.20;;
6651;SDS011;3362;50.892;10.692;2022-10-17T10:28:24;5.28;;;1.90;;
6651;SDS011;3362;50.892;10.692;2022-10-17T10:30:51;2.08;;;1.15;;
6651;SDS011;3362;50.892;10.692;2022-10-17T10:33:18;4.00;;;1.10;;
6651;SDS011;3362;50.892;10.692;2022-10-17T10:35:51;2.55;;;1.05;;
6651;SDS011;3362;50.892;10.692;2022-10-17T10:38:17;1.45;;;1.05;;
6651;SDS011;3362;50.892;10.692;2022-10-17T10:40:46;3.13;;;1.08;;
6651;SDS011;3362;50.892;10.692;2022-10-17T10:43:19;1.20;;;0.85;;
6651;SDS011;3362;50.892;10.692;2022-10-17T10:45:47;0.90;;;0.90;;
6651;SDS011;3362;50.892;10.692;2022-10-17T10:48:17;1.25;;;1.10;;
6651;SDS011;3362;50.892;10.692;2022-10-17T10:50:45;1.63;;;1.15;;
6651;SDS011;3362;50.892;10.692;2022-10-17T10:53:15;1.38;;;1.17;;
6651;SDS011;3362;50.892;10.692;2022-10-17T10:55:45;3.90;;;0.95;;
6651;SDS011;3362;50.892;10.692;2022-10-17T10:58:17;3.92;;;1.05;;
6651;SDS011;3362;50.892;10.692;2022-10-17T11:00:45;1.00;;;0.90;;
6651;SDS011;3362;50.892;10.692;2022-10-17T11:03:14;5.78;;;1.13;;
6651;SDS011;3362;50.892;10.692;2022-10-17T11:05:42;3.72;;;1.10;;
6651;SDS011;3362;50.892;10.692;2022-10-17T11:08:12;3.88;;;1.40;;
6651;SDS011;3362;50.892;10.692;2022-10-17T11:10:43;2.60;;;1.52;;
6651;SDS011;3362;50.892;10.692;2022-10-17T11:13:13;2.28;;;1.25;;
6651;SDS011;3362;50.892;10.692;2022-10-17T11:15:43;7.30;;;1.05;;
6651;SDS011;3362;50.892;10.692;2022-10-17T11:18:12;1.90;;;1.08;;
6651;SDS011;3362;50.892;10.692;2022-10-17T11:20:43;1.73;;;0.95;;
6651;SDS011;3362;50.892;10.692;2022-10-17T11:23:14;2.63;;;1.00;;
6651;SDS011;3362;50.892;10.692;2022-10-17T11:25:44;6.82;;;2.67;;
6651;SDS011;3362;50.892;10.692;2022-10-17T11:28:11;1.65;;;1.10;;
6651;SDS011;3362;50.892;10.692;2022-10-17T11:30:40;2.25;;;1.00;;
6651;SDS011;3362;50.892;10.692;2022-10-17T11:33:08;1.42;;;0.90;;
6651;SDS011;3362;50.892;10.692;2022-10-17T11:35:38;2.05;;;0.98;;
6651;SDS011;3362;50.892;10.692;2022-10-17T11:38:13;0.77;;;0.77;;
6651;SDS011;3362;50.892;10.692;2022-10-17T11:40:43;1.95;;;0.93;;
6651;SDS011;3362;50.892;10.692;2022-10-17T11:43:10;2.13;;;1.15;;
6651;SDS011;3362;50.892;10.692;2022-10-17T11:45:39;1.67;;;1.00;;
6651;SDS011;3362;50.892;10.692;2022-10-17T11:48:09;3.10;;;1.25;;
6651;SDS011;3362;50.892;10.692;2022-10-17T11:50:38;7.72;;;1.27;;
6651;SDS011;3362;50.892;10.692;2022-10-17T11:53:10;1.30;;;0.93;;
6651;SDS011;3362;50.892;10.692;2022-10-17T11:55:38;4.20;;;1.25;;
6651;SDS011;3362;50.892;10.692;2022-10-17T11:58:13;4.28;;;1.00;;
6651;SDS011;3362;50.892;10.692;2022-10-17T12:00:51;4.18;;;0.90;;
6651;SDS011;3362;50.892;10.692;2022-10-17T12:03:25;1.27;;;0.95;;
6651;SDS011;3362;50.892;10.692;2022-10-17T12:05:56;3.58;;;1.13;;
6651;SDS011;3362;50.892;10.692;2022-10-17T12:08:27;2.80;;;0.93;;
6651;SDS011;3362;50.892;10.692;2022-10-17T12:10:55;1.75;;;1.10;;
6651;SDS011;3362;50.892;10.692;2022-10-17T12:19:15;1.25;;;1.00;;
6651;SDS011;3362;50.892;10.692;2022-10-17T12:21:52;1.08;;;0.95;;
6651;SDS011;3362;50.892;10.692;2022-10-17T12:24:22;4.35;;;1.48;;
6651;SDS011;3362;50.892;10.692;2022-10-17T12:26:51;2.55;;;1.63;;
6651;SDS011;3362;50.892;10.692;2022-10-17T12:29:22;1.55;;;1.20;;
6651;SDS011;3362;50.892;10.692;2022-10-17T12:31:51;3.35;;;1.02;;
6651;SDS011;3362;50.892;10.692;2022-10-17T12:34:17;1.65;;;1.00;;
6651;SDS011;3362;50.892;10.692;2022-10-17T12:36:45;2.05;;;1.10;;
6651;SDS011;3362;50.892;10.692;2022-10-17T12:41:58;2.38;;;1.27;;
6651;SDS011;3362;50.892;10.692;2022-10-17T12:44:34;1.67;;;1.13;;
6651;SDS011;3362;50.892;10.692;2022-10-17T12:49:44;1.83;;;1.10;;
6651;SDS011;3362;50.892;10.692;2022-10-17T12:54:54;1.23;;;0.93;;
6651;SDS011;3362;50.892;10.692;2022-10-17T12:57:24;1.48;;;1.13;;
6651;SDS011;3362;50.892;10.692;2022-10-17T12:59:52;1.95;;;1.23;;
6651;SDS011;3362;50.892;10.692;2022-10-17T13:02:19;1.38;;;1.02;;
6651;SDS011;3362;50.892;10.692;2022-10-17T13:04:46;1.35;;;1.00;;
6651;SDS011;3362;50.892;10.692;2022-10-17T13:07:15;2.45;;;1.17;;
6651;SDS011;3362;50.892;10.692;2022-10-17T13:09:43;2.40;;;0.90;;
6651;SDS011;3362;50.892;10.692;2022-10-17T13:12:10;1.98;;;1.08;;
6651;SDS011;3362;50.892;10.692;2022-10-17T13:14:39;1.55;;;1.08;;
6651;SDS011;3362;50.892;10.692;2022-10-17T13:17:11;3.72;;;1.00;;
6651;SDS011;3362;50.892;10.692;2022-10-17T13:19:45;1.98;;;1.15;;
6651;SDS011;3362;50.892;10.692;2022-10-17T13:22:12;5.72;;;1.50;;
6651;SDS011;3362;50.892;10.692;2022-10-17T13:24:40;2.08;;;0.88;;
6651;SDS011;3362;50.892;10.692;2022-10-17T13:27:20;1.60;;;1.02;;
6651;SDS011;3362;50.892;10.692;2022-10-17T13:29:48;3.13;;;1.33;;
6651;SDS011;3362;50.892;10.692;2022-10-17T13:32:14;2.15;;;1.02;;
6651;SDS011;3362;50.892;10.692;2022-10-17T13:34:41;1.83;;;1.23;;
6651;SDS011;3362;50.892;10.692;2022-10-17T13:37:09;4.13;;;1.02;;
6651;SDS011;3362;50.892;10.692;2022-10-17T13:39:37;1.77;;;1.08;;
6651;SDS011;3362;50.892;10.692;2022-10-17T13:42:04;1.45;;;1.10;;
6651;SDS011;3362;50.892;10.692;2022-10-17T13:44:31;3.58;;;0.90;;
6651;SDS011;3362;50.892;10.692;2022-10-17T13:46:59;1.52;;;0.85;;
6651;SDS011;3362;50.892;10.692;2022-10-17T13:49:28;3.58;;;1.00;;
6651;SDS011;3362;50.892;10.692;2022-10-17T13:51:56;1.33;;;1.02;;
6651;SDS011;3362;50.892;10.692;2022-10-17T13:54:36;1.17;;;0.88;;
6651;SDS011;3362;50.892;10.692;2022-10-17T13:57:04;3.42;;;1.00;;
6651;SDS011;3362;50.892;10.692;2022-10-17T13:59:32;3.22;;;0.90;;
6651;SDS011;3362;50.892;10.692;2022-10-17T14:02:03;1.85;;;0.80;;
6651;SDS011;3362;50.892;10.692;2022-10-17T14:04:29;3.90;;;1.13;;
6651;SDS011;3362;50.892;10.692;2022-10-17T14:06:56;2.47;;;1.05;;
6651;SDS011;3362;50.892;10.692;2022-10-17T14:09:23;1.13;;;0.90;;
6651;SDS011;3362;50.892;10.692;2022-10-17T14:11:56;3.42;;;1.17;;
6651;SDS011;3362;50.892;10.692;2022-10-17T14:14:23;1.88;;;1.17;;
6651;SDS011;3362;50.892;10.692;2022-10-17T14:16:50;3.08;;;0.90;;
6651;SDS011;3362;50.892;10.692;2022-10-17T14:19:21;1.33;;;0.93;;
6651;SDS011;3362;50.892;10.692;2022-10-17T14:21:51;1.23;;;1.00;;
6651;SDS011;3362;50.892;10.692;2022-10-17T14:24:27;1.98;;;0.90;;
6651;SDS011;3362;50.892;10.692;2022-10-17T14:26:55;2.85;;;0.88;;
6651;SDS011;3362;50.892;10.692;2022-10-17T14:29:23;1.15;;;0.88;;
6651;SDS011;3362;50.892;10.692;2022-10-17T14:31:55;2.13;;;1.10;;
6651;SDS011;3362;50.892;10.692;2022-10-17T14:34:25;3.58;;;0.95;;
6651;SDS011;3362;50.892;10.692;2022-10-17T14:36:53;2.40;;;1.27;;
6651;SDS011;3362;50.892;10.692;2022-10-17T14:39:19;1.42;;;0.90;;
6651;SDS011;3362;50.892;10.692;2022-10-17T14:41:47;4.45;;;1.35;;
6651;SDS011;3362;50.892;10.692;2022-10-17T14:44:16;1.80;;;0.80;;
6651;SDS011;3362;50.892;10.692;2022-10-17T14:46:44;2.20;;;0.88;;
6651;SDS011;3362;50.892;10.692;2022-10-17T14:49:15;1.48;;;0.82;;
6651;SDS011;3362;50.892;10.692;2022-10-17T14:54:25;1.65;;;1.05;;
6651;SDS011;3362;50.892;10.692;2022-10-17T14:56:53;1.77;;;1.13;;
6651;SDS011;3362;50.892;10.692;2022-10-17T14:59:20;5.43;;;1.00;;
6651;SDS011;3362;50.892;10.692;2022-10-17T15:01:49;2.67;;;1.00;;
6651;SDS011;3362;50.892;10.692;2022-10-17T15:04:15;4.35;;;0.90;;
6651;SDS011;3362;50.892;10.692;2022-10-17T15:06:42;3.53;;;1.15;;
6651;SDS011;3362;50.892;10.692;2022-10-17T15:09:08;2.15;;;1.05;;
6651;SDS011;3362;50.892;10.692;2022-10-17T15:11:36;2.55;;;0.90;;
6651;SDS011;3362;50.892;10.692;2022-10-17T15:14:02;5.00;;;1.30;;
6651;SDS011;3362;50.892;10.692;2022-10-17T15:16:29;2.38;;;1.08;;
6651;SDS011;3362;50.892;10.692;2022-10-17T15:18:56;2.65;;;0.93;;
6651;SDS011;3362;50.892;10.692;2022-10-17T15:21:23;2.83;;;1.25;;
6651;SDS011;3362;50.892;10.692;2022-10-17T15:23:49;2.45;;;1.55;;
6651;SDS011;3362;50.892;10.692;2022-10-17T15:26:17;1.98;;;1.38;;